Time;durP1;ratioP1;P1;durP2;ratioP2;P2;SDS_P1;SDS_P2;PMS_P1;PMS_P2;Temp;Humidity;BMP_temperature;BMP_pressure;BME280_temperature;BME280_humidity;BME280_pressure;Samples;Min_cycle;Max_cycle;Signal;HPM_P1;HPM_P2
2022/07/17 00:01:39;;;;;;;;;;;;;;;22.20;32.19;100956.91;5386288;32;34845;-77
2022/07/17 00:04:41;;;;;;;;;;;;;;;22.06;32.43;100959.81;5411768;32;35059;-78
2022/07/17 00:07:43;;;;;;;;;;;;;;;22.25;32.19;100957.41;5397221;32;35562;-68
2022/07/17 00:10:45;;;;;;;;;;;;;;;22.20;32.25;100962.28;5385181;32;37314;-70
2022/07/17 00:13:47;;;;;;;;;;;;;;;22.35;31.84;100961.09;5410352;32;37186;-78
2022/07/17 00:16:49;;;;;;;;;;;;;;;22.15;32.06;100964.44;5401393;32;34711;-78
2022/07/17 00:19:51;;;;;;;;;;;;;;;21.56;33.13;100978.75;5414447;32;35353;-70
2022/07/17 00:22:54;;;;;;;;;;;;;;;21.90;32.55;100961.00;5394417;32;34634;-75
2022/07/17 00:25:56;;;;;;;;;;;;;;;22.44;31.76;100972.87;5411862;32;35759;-69
2022/07/17 00:28:58;;;;;;;;;;;;;;;21.95;32.53;100975.84;5394915;32;37444;-69
2022/07/17 00:32:00;;;;;;;;;;;;;;;22.04;32.48;100976.00;5395175;32;35231;-67
2022/07/17 00:35:02;;;;;;;;;;;;;;;22.39;31.97;100969.72;5406603;32;34842;-75
2022/07/17 00:38:05;;;;;;;;;;;;;;;21.77;33.11;100983.47;5392798;32;43790;-76
2022/07/17 00:41:08;;;;;;;;;;;;;;;22.54;31.84;100983.69;5411885;32;37966;-68
2022/07/17 00:44:11;;;;;;;;;;;;;;;21.89;33.01;100980.69;5395425;32;35917;-79
2022/07/17 00:47:18;;;;;;;;;;;;;;;21.83;33.17;100980.31;5412699;32;35393;-69
2022/07/17 00:50:24;;;;;;;;;;;;;;;22.22;32.57;100986.25;5380783;32;33703;-76
2022/07/17 00:53:26;;;;;;;;;;;;;;;21.95;33.04;100990.06;5395247;32;35547;-70
2022/07/17 00:56:28;;;;;;;;;;;;;;;22.04;33.10;100997.41;5409031;32;34125;-79
2022/07/17 00:59:30;;;;;;;;;;;;;;;21.47;33.94;101002.69;5374376;32;35993;-77
2022/07/17 01:02:32;;;;;;;;;;;;;;;21.36;33.92;101003.47;5395943;32;35408;-69
2022/07/17 01:05:34;;;;;;;;;;;;;;;21.34;34.18;101005.44;5377821;32;36003;-69
2022/07/17 01:08:36;;;;;;;;;;;;;;;21.53;33.83;101004.91;5409518;32;43795;-77
2022/07/17 01:11:38;;;;;;;;;;;;;;;21.95;32.99;101000.78;5399656;32;33769;-77
2022/07/17 01:14:40;;;;;;;;;;;;;;;22.07;32.72;100998.97;5382517;32;36451;-69
2022/07/17 01:17:42;;;;;;;;;;;;;;;21.95;33.05;100999.91;5414309;32;34362;-75
2022/07/17 01:20:45;;;;;;;;;;;;;;;21.85;33.37;101000.63;5394431;32;36286;-77
2022/07/17 01:23:47;;;;;;;;;;;;;;;21.99;32.94;100986.19;5413860;32;35331;-76
2022/07/17 01:26:49;;;;;;;;;;;;;;;22.46;32.47;101002.22;5398059;32;36378;-78
2022/07/17 01:29:51;;;;;;;;;;;;;;;21.92;33.50;101006.37;5410146;32;38391;-77
2022/07/17 01:32:53;;;;;;;;;;;;;;;21.37;34.79;101005.19;5396678;32;37810;-70
2022/07/17 01:35:55;;;;;;;;;;;;;;;21.53;34.62;101002.22;5379413;32;35884;-77
2022/07/17 01:38:57;;;;;;;;;;;;;;;21.71;34.44;101002.66;5412918;32;37038;-75
2022/07/17 01:41:59;;;;;;;;;;;;;;;21.21;35.54;101012.63;5397646;32;35492;-75
2022/07/17 01:45:01;;;;;;;;;;;;;;;21.19;35.63;101018.09;5413311;32;35994;-78
2022/07/17 01:48:03;;;;;;;;;;;;;;;20.96;36.05;101019.75;5396957;32;35212;-75
2022/07/17 01:51:05;;;;;;;;;;;;;;;21.10;35.84;101024.94;5408633;32;44971;-71
2022/07/17 01:54:07;;;;;;;;;;;;;;;20.98;36.11;101022.31;5399760;32;35990;-78
2022/07/17 01:57:10;;;;;;;;;;;;;;;21.30;35.52;101023.50;5398592;32;36218;-68
2022/07/17 02:00:14;;;;;;;;;;;;;;;20.74;36.57;101030.28;5375216;32;35450;-77
2022/07/17 02:03:16;;;;;;;;;;;;;;;21.13;35.69;101020.34;5396948;32;35024;-69
2022/07/17 02:06:18;;;;;;;;;;;;;;;21.72;34.75;101031.13;5400935;32;37723;-78
2022/07/17 02:09:21;;;;;;;;;;;;;;;20.86;36.32;101040.06;5396048;32;35397;-71
2022/07/17 02:12:23;;;;;;;;;;;;;;;20.75;36.62;101034.66;5406513;32;35533;-68
2022/07/17 02:15:25;;;;;;;;;;;;;;;20.35;37.61;101042.78;5404757;32;37035;-69
2022/07/17 02:18:27;;;;;;;;;;;;;;;20.17;38.15;101052.06;5392234;32;34875;-79
2022/07/17 02:21:29;;;;;;;;;;;;;;;20.75;36.84;101050.69;5413296;32;36346;-75
2022/07/17 02:24:31;;;;;;;;;;;;;;;20.14;37.97;101065.59;5396349;32;35320;-75
2022/07/17 02:27:33;;;;;;;;;;;;;;;20.29;37.64;101067.22;5414585;32;36030;-69
2022/07/17 02:30:35;;;;;;;;;;;;;;;20.45;37.37;101065.22;5395041;32;35174;-77
2022/07/17 02:33:37;;;;;;;;;;;;;;;20.48;37.46;101074.81;5404192;32;44854;-76
2022/07/17 02:36:39;;;;;;;;;;;;;;;20.25;37.72;101076.41;5403479;32;35943;-79
2022/07/17 02:39:52;;;;;;;;;;;;;;;20.14;38.04;101073.59;5394947;32;36177;-79
2022/07/17 02:42:54;;;;;;;;;;;;;;;20.12;37.71;101072.88;5413441;32;35493;-78
2022/07/17 02:45:56;;;;;;;;;;;;;;;20.36;37.50;101073.00;5382278;32;34993;-69
2022/07/17 02:48:58;;;;;;;;;;;;;;;20.17;37.59;101070.75;5397733;32;35548;-75
2022/07/17 02:52:00;;;;;;;;;;;;;;;20.90;36.22;101080.78;5397620;32;36027;-77
2022/07/17 02:55:02;;;;;;;;;;;;;;;21.09;35.66;101079.34;5399966;32;35602;-78
2022/07/17 02:58:04;;;;;;;;;;;;;;;20.98;35.71;101081.09;5403955;32;35297;-78
2022/07/17 03:01:06;;;;;;;;;;;;;;;21.80;33.73;101084.91;5379841;32;44207;-69
2022/07/17 03:04:08;;;;;;;;;;;;;;;21.65;33.44;101061.97;5390786;32;35481;-70
2022/07/17 03:07:10;;;;;;;;;;;;;;;21.39;34.08;101082.62;5397250;32;36264;-69
2022/07/17 03:10:12;;;;;;;;;;;;;;;21.56;33.51;101080.41;5410549;32;36805;-69
2022/07/17 03:13:14;;;;;;;;;;;;;;;20.80;35.07;101081.47;5382773;32;34829;-70
2022/07/17 03:16:16;;;;;;;;;;;;;;;21.26;33.97;101091.50;5396617;32;36200;-67
2022/07/17 03:19:18;;;;;;;;;;;;;;;21.47;33.82;101093.63;5410482;32;35574;-68
2022/07/17 03:22:20;;;;;;;;;;;;;;;21.63;33.25;101092.34;5396567;32;36228;-68
2022/07/17 03:25:22;;;;;;;;;;;;;;;21.12;33.90;101099.66;5406901;32;35457;-73
2022/07/17 03:28:24;;;;;;;;;;;;;;;21.24;33.93;101100.59;5397686;32;35179;-74
2022/07/17 03:31:26;;;;;;;;;;;;;;;20.91;34.05;101104.72;5409495;32;36930;-77
2022/07/17 03:34:28;;;;;;;;;;;;;;;19.74;36.15;101109.16;5392787;32;36057;-68
2022/07/17 03:37:30;;;;;;;;;;;;;;;20.33;35.34;101118.56;5381216;32;35311;-79
2022/07/17 03:40:32;;;;;;;;;;;;;;;20.49;34.73;101117.47;5412366;32;36753;-76
2022/07/17 03:43:35;;;;;;;;;;;;;;;20.66;34.26;101118.09;5395957;32;35872;-69
2022/07/17 03:46:37;;;;;;;;;;;;;;;20.66;34.47;101121.63;5399536;32;44505;-77
2022/07/17 03:49:39;;;;;;;;;;;;;;;20.29;34.55;101108.13;5381302;32;35971;-70
2022/07/17 03:52:41;;;;;;;;;;;;;;;20.31;34.57;101125.84;5412623;32;35092;-69
2022/07/17 03:55:42;;;;;;;;;;;;;;;20.09;34.92;101132.59;5393271;32;35262;-74
2022/07/17 03:58:44;;;;;;;;;;;;;;;19.90;35.35;101133.00;5383605;32;35823;-75
2022/07/17 04:01:47;;;;;;;;;;;;;;;20.71;33.74;101130.16;5403547;32;35820;-68
2022/07/17 04:04:49;;;;;;;;;;;;;;;20.70;34.14;101143.62;5380745;32;35168;-73
2022/07/17 04:07:52;;;;;;;;;;;;;;;20.41;34.45;101146.44;5412800;32;35340;-69
2022/07/17 04:10:54;;;;;;;;;;;;;;;20.61;34.32;101150.50;5392910;32;35248;-78
2022/07/17 04:13:55;;;;;;;;;;;;;;;21.44;32.40;101128.59;5410678;32;35318;-68
2022/07/17 04:16:57;;;;;;;;;;;;;;;21.26;33.08;101149.47;5397581;32;36110;-68
2022/07/17 04:19:59;;;;;;;;;;;;;;;21.03;33.14;101157.31;5379475;32;36081;-74
2022/07/17 04:23:01;;;;;;;;;;;;;;;20.86;34.04;101157.62;5384841;32;34694;-68
2022/07/17 04:26:04;;;;;;;;;;;;;;;21.35;33.01;101160.38;5395852;32;35632;-78
2022/07/17 04:29:11;;;;;;;;;;;;;;;21.82;32.57;101165.91;5411175;32;44734;-69
2022/07/17 04:32:13;;;;;;;;;;;;;;;20.81;34.22;101167.81;5395681;32;35843;-77
2022/07/17 04:35:15;;;;;;;;;;;;;;;21.42;32.99;101168.81;5407881;32;35658;-69
2022/07/17 04:38:17;;;;;;;;;;;;;;;20.31;35.28;101163.22;5394171;32;35780;-79
2022/07/17 04:41:19;;;;;;;;;;;;;;;21.70;33.12;101172.16;5396745;32;36108;-69
2022/07/17 04:44:21;;;;;;;;;;;;;;;22.24;31.72;101171.75;5410122;32;35699;-76
2022/07/17 04:47:22;;;;;;;;;;;;;;;22.40;31.11;101172.25;5397460;32;35669;-69
2022/07/17 04:50:24;;;;;;;;;;;;;;;23.16;30.23;101170.84;5414216;32;36798;-75
2022/07/17 04:53:28;;;;;;;;;;;;;;;22.90;30.26;101176.44;5396785;32;35541;-68
2022/07/17 04:56:30;;;;;;;;;;;;;;;23.10;30.17;101176.69;5413784;32;35979;-68
2022/07/17 04:59:32;;;;;;;;;;;;;;;23.39;29.76;101177.06;5363874;32;36532;-70
2022/07/17 05:02:34;;;;;;;;;;;;;;;23.75;29.37;101173.22;5381318;32;35197;-77
2022/07/17 05:05:36;;;;;;;;;;;;;;;24.85;27.69;101180.06;5414069;32;44653;-76
2022/07/17 05:08:38;;;;;;;;;;;;;;;24.23;28.47;101175.53;5396571;32;35328;-77
2022/07/17 05:11:40;;;;;;;;;;;;;;;24.51;27.75;101182.13;5414578;32;33853;-68
2022/07/17 05:14:42;;;;;;;;;;;;;;;23.27;29.35;101178.88;5382338;32;35318;-69
2022/07/17 05:17:44;;;;;;;;;;;;;;;24.93;26.91;101188.34;5412355;32;34845;-68
2022/07/17 05:20:46;;;;;;;;;;;;;;;24.10;27.90;101193.63;5399832;32;36359;-70
2022/07/17 05:23:48;;;;;;;;;;;;;;;24.34;27.51;101193.44;5401411;32;35370;-77
2022/07/17 05:26:50;;;;;;;;;;;;;;;24.15;27.84;101200.34;5414599;32;35176;-70
2022/07/17 05:29:52;;;;;;;;;;;;;;;25.12;26.54;101203.75;5396693;32;36075;-78
2022/07/17 05:32:54;;;;;;;;;;;;;;;25.02;26.40;101186.66;5414272;32;35296;-77
2022/07/17 05:35:56;;;;;;;;;;;;;;;25.69;25.62;101194.16;5395169;32;36037;-78
2022/07/17 05:38:58;;;;;;;;;;;;;;;24.68;27.03;101203.03;5408939;32;35834;-70
2022/07/17 05:42:00;;;;;;;;;;;;;;;24.25;27.57;101203.09;5387294;32;37029;-75
2022/07/17 05:45:02;;;;;;;;;;;;;;;24.95;26.78;101207.88;5383292;32;36447;-76
2022/07/17 05:48:05;;;;;;;;;;;;;;;26.68;24.48;101205.75;5412443;32;34938;-69
2022/07/17 05:51:06;;;;;;;;;;;;;;;25.19;26.78;101206.75;5394909;32;44583;-68
2022/07/17 05:54:13;;;;;;;;;;;;;;;25.57;25.96;101208.75;5412627;32;35611;-76
2022/07/17 05:57:15;;;;;;;;;;;;;;;26.48;24.69;101207.63;5396976;32;35624;-77
2022/07/17 06:00:18;;;;;;;;;;;;;;;25.70;25.41;101214.72;5383951;32;35578;-77
2022/07/17 06:03:20;;;;;;;;;;;;;;;25.96;24.96;101203.47;5404537;32;35744;-69
2022/07/17 06:06:21;;;;;;;;;;;;;;;24.82;26.32;101218.81;5397570;32;35571;-71
2022/07/17 06:09:23;;;;;;;;;;;;;;;25.09;25.92;101225.53;5412815;32;35220;-74
2022/07/17 06:12:25;;;;;;;;;;;;;;;25.36;25.81;101217.72;5397103;32;36367;-75
2022/07/17 06:15:27;;;;;;;;;;;;;;;25.54;25.36;101226.00;5414319;32;35603;-69
2022/07/17 06:18:29;;;;;;;;;;;;;;;25.51;25.42;101220.06;5395406;32;36946;-71
2022/07/17 06:21:31;;;;;;;;;;;;;;;25.96;25.09;101217.78;5405572;32;35589;-76
2022/07/17 06:24:33;;;;;;;;;;;;;;;25.81;24.87;101227.25;5403677;32;35468;-76
2022/07/17 06:27:35;;;;;;;;;;;;;;;25.16;25.86;101226.69;5383154;32;35633;-68
2022/07/17 06:30:37;;;;;;;;;;;;;;;26.24;24.32;101207.19;5397778;32;44510;-68
2022/07/17 06:33:39;;;;;;;;;;;;;;;27.36;22.97;101219.91;5380745;32;35005;-69
2022/07/17 06:36:41;;;;;;;;;;;;;;;27.20;22.50;101223.25;5410810;32;35614;-75
2022/07/17 06:39:43;;;;;;;;;;;;;;;27.10;21.77;101227.81;5398046;32;35151;-75
2022/07/17 06:42:46;;;;;;;;;;;;;;;25.49;23.14;101227.41;5404805;32;35397;-69
2022/07/17 06:45:51;;;;;;;;;;;;;;;27.42;20.96;101223.87;5407345;32;35773;-70
2022/07/17 06:48:53;;;;;;;;;;;;;;;25.99;22.23;101232.81;5395882;32;35434;-69
2022/07/17 06:51:55;;;;;;;;;;;;;;;29.11;19.02;101233.00;5413752;32;34764;-70
2022/07/17 06:54:57;;;;;;;;;;;;;;;27.85;20.13;101230.50;5397423;32;34793;-77
2022/07/17 06:57:59;;;;;;;;;;;;;;;25.46;23.19;101235.75;5409515;32;35763;-74
2022/07/17 07:01:01;;;;;;;;;;;;;;;26.77;21.23;101234.53;5379902;32;35758;-77
2022/07/17 07:04:03;;;;;;;;;;;;;;;27.11;20.80;101237.63;5384936;32;35935;-76
2022/07/17 07:07:06;;;;;;;;;;;;;;;27.33;20.90;101227.47;5398794;32;43666;-77
2022/07/17 07:10:08;;;;;;;;;;;;;;;26.80;21.38;101219.94;5394937;32;35349;-68
2022/07/17 07:13:09;;;;;;;;;;;;;;;25.97;21.36;101237.50;5398790;32;35229;-77
2022/07/17 07:16:11;;;;;;;;;;;;;;;26.03;21.65;101231.56;5396345;32;34667;-76
2022/07/17 07:19:13;;;;;;;;;;;;;;;26.44;21.56;101242.09;5412262;32;34936;-78
2022/07/17 07:22:15;;;;;;;;;;;;;;;26.96;21.19;101233.66;5396747;32;36845;-69
2022/07/17 07:25:17;;;;;;;;;;;;;;;28.31;19.85;101226.78;5402690;32;35327;-71
2022/07/17 07:29:17;;;;;;;;;;;;;;;27.24;21.02;101240.87;5443194;31;889903;-77
2022/07/17 07:32:19;;;;;;;;;;;;;;;27.51;20.04;101236.50;5446155;32;34666;-70
2022/07/17 07:35:20;;;;;;;;;;;;;;;29.06;18.59;101236.19;5461535;32;35176;-76
2022/07/17 07:38:22;;;;;;;;;;;;;;;29.76;18.22;101235.22;5430087;32;34551;-74
2022/07/17 07:41:24;;;;;;;;;;;;;;;27.46;19.91;101233.37;5449153;32;34414;-69
2022/07/17 07:44:27;;;;;;;;;;;;;;;26.54;20.89;101242.09;5464826;32;34715;-78
2022/07/17 07:47:39;;;;;;;;;;;;;;;27.73;19.58;101240.66;5433748;32;34795;-70
2022/07/17 07:50:41;;;;;;;;;;;;;;;28.53;19.03;101242.53;5453466;32;47159;-78
2022/07/17 07:53:43;;;;;;;;;;;;;;;27.65;19.86;101227.88;5445226;32;34429;-75
2022/07/17 07:56:45;;;;;;;;;;;;;;;27.99;19.53;101238.94;5463074;32;34825;-69
2022/07/17 07:59:47;;;;;;;;;;;;;;;30.08;17.22;101227.16;5422429;32;35212;-71
2022/07/17 08:02:49;;;;;;;;;;;;;;;28.86;19.01;101242.81;5418473;32;34691;-68
2022/07/17 08:05:51;;;;;;;;;;;;;;;27.38;20.62;101244.94;5430237;32;36621;-75
2022/07/17 08:08:53;;;;;;;;;;;;;;;29.61;18.85;101230.41;5428877;32;35182;-77
2022/07/17 08:11:55;;;;;;;;;;;;;;;30.43;18.26;101238.75;5450074;32;34248;-79
2022/07/17 08:14:57;;;;;;;;;;;;;;;29.13;18.78;101244.53;5418680;32;35207;-70
2022/07/17 08:17:59;;;;;;;;;;;;;;;27.06;20.51;101241.78;5409024;32;34064;-77
2022/07/17 08:21:01;;;;;;;;;;;;;;;28.94;18.87;101231.22;5432741;32;34882;-75
2022/07/17 08:24:04;;;;;;;;;;;;;;;29.50;18.24;101238.81;5405716;32;34314;-77
2022/07/17 08:27:06;;;;;;;;;;;;;;;29.44;18.61;101241.31;5449392;32;45334;-70
2022/07/17 08:30:09;;;;;;;;;;;;;;;32.23;16.07;101231.78;5407304;32;35461;-71
2022/07/17 08:33:11;;;;;;;;;;;;;;;30.82;17.60;101238.09;5435236;32;34799;-77
2022/07/17 08:36:13;;;;;;;;;;;;;;;28.98;18.71;101257.81;5431541;32;36508;-69
2022/07/17 08:39:15;;;;;;;;;;;;;;;31.25;16.45;101248.56;5432483;32;36426;-70
2022/07/17 08:42:18;;;;;;;;;;;;;;;31.95;15.53;101231.47;5423882;32;35045;-77
2022/07/17 08:45:21;;;;;;;;;;;;;;;33.19;14.72;101237.59;5425315;32;34709;-69
2022/07/17 08:48:24;;;;;;;;;;;;;;;30.87;16.76;101243.84;5426517;32;35455;-74
2022/07/17 08:51:29;;;;;;;;;;;;;;;30.47;17.57;101238.25;5423668;32;34512;-71
2022/07/17 08:54:31;;;;;;;;;;;;;;;31.21;16.97;101235.47;5414445;32;34627;-74
2022/07/17 08:57:33;;;;;;;;;;;;;;;31.64;16.28;101234.16;5385273;32;34258;-77
2022/07/17 09:00:35;;;;;;;;;;;;;;;33.03;15.05;101233.16;5373397;32;35179;-70
2022/07/17 09:03:39;;;;;;;;;;;;;;;33.16;14.97;101238.81;5410708;32;44639;-71
2022/07/17 09:06:46;;;;;;;;;;;;;;;31.99;15.44;101234.66;5400359;32;34607;-70
2022/07/17 09:09:51;;;;;;;;;;;;;;;32.65;14.67;101235.88;5434667;32;34776;-79
2022/07/17 09:12:55;;;;;;;;;;;;;;;32.02;14.91;101231.59;5394043;32;35282;-70
2022/07/17 09:16:17;;;;;;;;;;;;;;;30.16;16.62;101248.03;5444163;32;34590;-70
2022/07/17 09:19:26;;;;;;;;;;;;;;;29.65;17.32;101231.78;5400725;32;35193;-78
2022/07/17 09:22:28;;;;;;;;;;;;;;;30.53;16.32;101231.31;5410725;32;34424;-70
2022/07/17 09:25:41;;;;;;;;;;;;;;;31.17;15.29;101234.97;5413306;32;34898;-70
2022/07/17 09:28:46;;;;;;;;;;;;;;;30.21;15.78;101224.00;5392960;32;46454;-68
2022/07/17 09:31:51;;;;;;;;;;;;;;;31.06;15.67;101229.91;5416658;32;35034;-69
2022/07/17 09:34:54;;;;;;;;;;;;;;;30.61;16.15;101233.16;5402384;32;35237;-68
2022/07/17 09:37:56;;;;;;;;;;;;;;;31.13;15.98;101220.06;5414229;32;34994;-69
2022/07/17 09:41:11;;;;;;;;;;;;;;;30.84;16.38;101220.59;5441815;32;34621;-68
2022/07/17 09:44:15;;;;;;;;;;;;;;;29.85;17.47;101215.25;5417493;32;44551;-70
2022/07/17 09:47:17;;;;;;;;;;;;;;;30.12;17.22;101206.84;5434054;32;34900;-79
2022/07/17 09:50:19;;;;;;;;;;;;;;;31.12;16.33;101209.38;5405625;32;34825;-69
2022/07/17 09:53:21;;;;;;;;;;;;;;;31.16;16.31;101216.13;5412197;32;34713;-69
2022/07/17 09:56:24;;;;;;;;;;;;;;;29.51;17.40;101204.44;5417537;32;34392;-74
2022/07/17 09:59:26;;;;;;;;;;;;;;;32.21;14.89;101203.94;5386989;32;34943;-69
2022/07/17 10:02:28;;;;;;;;;;;;;;;33.38;14.30;101204.34;5393669;32;34685;-69
2022/07/17 10:05:30;;;;;;;;;;;;;;;31.69;15.95;101203.75;5386695;32;35220;-79
2022/07/17 10:08:33;;;;;;;;;;;;;;;33.12;14.41;101197.50;5414171;32;34245;-75
2022/07/17 10:11:36;;;;;;;;;;;;;;;30.84;16.63;101207.03;5384259;32;36401;-76
2022/07/17 10:14:48;;;;;;;;;;;;;;;33.76;14.22;101194.16;5410552;32;34598;-79
2022/07/17 10:17:50;;;;;;;;;;;;;;;35.35;12.69;101198.25;5394474;32;34943;-71
2022/07/17 10:20:52;;;;;;;;;;;;;;;34.50;13.59;101191.16;5414894;32;34532;-69
2022/07/17 10:23:53;;;;;;;;;;;;;;;33.15;14.31;101204.44;5425831;32;36333;-75
2022/07/17 10:26:56;;;;;;;;;;;;;;;33.12;14.54;101196.66;5420759;32;34818;-69
2022/07/17 10:30:04;;;;;;;;;;;;;;;31.47;15.85;101198.06;5436514;32;34713;-70
2022/07/17 10:33:06;;;;;;;;;;;;;;;33.64;14.09;101184.78;5414970;32;45611;-78
2022/07/17 10:36:08;;;;;;;;;;;;;;;33.12;14.45;101193.94;5421193;32;36233;-70
2022/07/17 10:39:20;;;;;;;;;;;;;;;34.57;13.12;101183.84;5426130;32;35492;-70
2022/07/17 10:42:38;;;;;;;;;;;;;;;35.33;12.79;101186.69;5392199;32;34866;-78
2022/07/17 10:45:44;;;;;;;;;;;;;;;35.07;13.20;101184.66;5410589;32;44697;-70
2022/07/17 10:48:49;;;;;;;;;;;;;;;33.96;13.70;101190.84;5409113;32;35254;-79
2022/07/17 10:51:51;;;;;;;;;;;;;;;34.66;12.77;101190.88;5407014;32;35395;-78
2022/07/17 10:54:53;;;;;;;;;;;;;;;36.48;11.51;101177.53;5428938;32;34603;-70
2022/07/17 10:57:56;;;;;;;;;;;;;;;34.50;12.88;101180.25;5403152;32;35266;-78
2022/07/17 11:01:10;;;;;;;;;;;;;;;34.44;13.15;101184.59;5421047;32;35092;-79
2022/07/17 11:04:12;;;;;;;;;;;;;;;35.91;11.81;101170.75;5416354;32;45009;-72
2022/07/17 11:07:14;;;;;;;;;;;;;;;30.61;15.42;101185.19;5433791;32;35391;-70
2022/07/17 11:10:16;;;;;;;;;;;;;;;33.11;13.36;101181.34;5394942;32;34030;-78
2022/07/17 11:13:18;;;;;;;;;;;;;;;32.57;14.18;101173.38;5401233;32;35225;-71
2022/07/17 11:16:30;;;;;;;;;;;;;;;35.18;12.02;101162.25;5417099;32;35553;-71
2022/07/17 11:19:34;;;;;;;;;;;;;;;34.26;12.54;101156.06;5413535;32;35560;-70
2022/07/17 11:22:36;;;;;;;;;;;;;;;32.80;13.70;101157.00;5410250;32;45595;-78
2022/07/17 11:25:38;;;;;;;;;;;;;;;33.67;12.80;101148.97;5424742;32;35753;-68
2022/07/17 11:28:42;;;;;;;;;;;;;;;33.16;13.12;101154.38;5411888;32;34933;-70
2022/07/17 11:31:44;;;;;;;;;;;;;;;32.09;14.19;101161.88;5424378;32;35705;-70
2022/07/17 11:34:46;;;;;;;;;;;;;;;33.26;13.25;101146.78;5399273;32;34635;-79
2022/07/17 11:37:49;;;;;;;;;;;;;;;34.28;12.19;101141.22;5421277;32;34619;-78
2022/07/17 11:40:51;;;;;;;;;;;;;;;32.80;13.20;101136.06;5415376;32;34764;-69
2022/07/17 11:44:02;;;;;;;;;;;;;;;33.70;12.80;101124.06;5424516;32;35131;-76
2022/07/17 11:47:04;;;;;;;;;;;;;;;37.92;9.55;101105.16;5414313;32;35331;-78
2022/07/17 11:50:09;;;;;;;;;;;;;;;34.71;11.45;101127.47;5430529;32;44947;-70
2022/07/17 11:53:12;;;;;;;;;;;;;;;35.34;11.62;101116.47;5418338;32;35097;-70
2022/07/17 11:56:21;;;;;;;;;;;;;;;34.64;11.75;101134.78;5399973;32;35337;-69
2022/07/17 11:59:25;;;;;;;;;;;;;;;33.71;12.50;101127.63;5394160;32;34500;-78
2022/07/17 12:02:29;;;;;;;;;;;;;;;37.00;10.10;101110.06;5389597;32;34850;-76
2022/07/17 12:05:33;;;;;;;;;;;;;;;36.24;10.76;101101.50;5429432;32;35113;-78
2022/07/17 12:08:35;;;;;;;;;;;;;;;35.54;11.40;101112.78;5411563;32;34352;-69
2022/07/17 12:11:50;;;;;;;;;;;;;;;36.38;10.38;101111.41;5419462;32;44828;-77
2022/07/17 12:14:53;;;;;;;;;;;;;;;35.48;11.08;101110.84;5437624;32;35537;-71
2022/07/17 12:17:55;;;;;;;;;;;;;;;36.20;10.46;101109.31;5390829;32;34662;-72
2022/07/17 12:20:58;;;;;;;;;;;;;;;33.74;12.29;101098.06;5417845;32;34655;-75
2022/07/17 12:24:05;;;;;;;;;;;;;;;31.12;14.11;101111.63;5417846;32;34807;-71
2022/07/17 12:27:08;;;;;;;;;;;;;;;32.16;13.56;101111.16;5387181;32;45961;-69
2022/07/17 12:30:10;;;;;;;;;;;;;;;31.75;13.82;101097.00;5399257;32;35777;-70
2022/07/17 12:33:12;;;;;;;;;;;;;;;31.13;14.39;101105.19;5406845;32;34789;-69
2022/07/17 12:36:14;;;;;;;;;;;;;;;30.51;14.86;101113.12;5435401;32;34657;-77
2022/07/17 12:39:16;;;;;;;;;;;;;;;29.85;14.89;101112.28;5417178;32;35233;-68
2022/07/17 12:42:18;;;;;;;;;;;;;;;29.90;15.33;101104.50;5432069;32;34902;-79
2022/07/17 12:45:19;;;;;;;;;;;;;;;30.07;14.89;101092.62;5423256;32;35015;-74
2022/07/17 12:48:21;;;;;;;;;;;;;;;29.50;15.21;101099.81;5429241;32;35649;-69
2022/07/17 12:51:23;;;;;;;;;;;;;;;29.49;14.97;101085.44;5405928;32;34716;-69
2022/07/17 12:54:31;;;;;;;;;;;;;;;28.80;15.19;101097.34;5403664;32;32982;-75
2022/07/17 12:57:34;;;;;;;;;;;;;;;28.04;16.36;101097.97;5407267;32;34760;-68
2022/07/17 13:00:36;;;;;;;;;;;;;;;28.50;16.00;101093.28;5389485;32;46699;-76
2022/07/17 13:03:38;;;;;;;;;;;;;;;27.88;16.44;101095.13;5406268;32;35361;-67
2022/07/17 13:06:40;;;;;;;;;;;;;;;28.48;15.87;101090.75;5399239;32;33998;-77
2022/07/17 13:09:42;;;;;;;;;;;;;;;29.12;15.15;101075.88;5430215;32;34717;-70
2022/07/17 13:12:44;;;;;;;;;;;;;;;28.38;15.92;101095.41;5423576;32;35493;-74
2022/07/17 13:15:46;;;;;;;;;;;;;;;28.93;15.35;101076.12;5425068;32;34636;-68
2022/07/17 13:18:48;;;;;;;;;;;;;;;28.43;15.88;101071.44;5425010;32;34848;-70
2022/07/17 13:21:50;;;;;;;;;;;;;;;29.14;15.38;101070.28;5413112;32;34440;-69
2022/07/17 13:24:52;;;;;;;;;;;;;;;28.68;15.34;101077.84;5439748;32;34916;-69
2022/07/17 13:27:54;;;;;;;;;;;;;;;29.06;15.24;101072.97;5416545;32;34751;-69
2022/07/17 13:30:56;;;;;;;;;;;;;;;29.82;14.86;101080.97;5430257;32;34653;-68
2022/07/17 13:33:58;;;;;;;;;;;;;;;29.49;14.89;101073.75;5418049;32;35725;-69
2022/07/17 13:37:00;;;;;;;;;;;;;;;29.53;14.70;101065.19;5418320;32;34912;-69
2022/07/17 13:40:06;;;;;;;;;;;;;;;28.31;15.64;101067.31;5439077;32;44465;-77
2022/07/17 13:43:08;;;;;;;;;;;;;;;29.59;14.89;101069.09;5397699;32;34752;-71
2022/07/17 13:46:10;;;;;;;;;;;;;;;29.89;14.43;101059.47;5415537;32;36644;-69
2022/07/17 13:49:12;;;;;;;;;;;;;;;29.63;14.52;101068.59;5395393;32;34990;-77
2022/07/17 13:52:14;;;;;;;;;;;;;;;29.92;14.16;101064.53;5397893;32;35456;-71
2022/07/17 13:55:16;;;;;;;;;;;;;;;29.30;14.81;101061.34;5437050;32;35269;-69
2022/07/17 13:58:38;;;;;;;;;;;;;;;29.45;14.75;101059.72;5402340;32;44685;-69
2022/07/17 14:01:40;;;;;;;;;;;;;;;29.25;14.88;101045.62;5393385;32;36202;-70
2022/07/17 14:04:42;;;;;;;;;;;;;;;30.31;13.75;101055.72;5402554;32;36736;-70
2022/07/17 14:07:44;;;;;;;;;;;;;;;30.16;14.00;101061.84;5435256;32;35224;-70
2022/07/17 14:10:46;;;;;;;;;;;;;;;29.44;14.71;101054.47;5415984;32;35526;-79
2022/07/17 14:13:48;;;;;;;;;;;;;;;29.49;14.12;101052.09;5407130;32;35039;-74
2022/07/17 14:16:52;;;;;;;;;;;;;;;29.19;14.49;101040.03;5414783;32;34650;-75
2022/07/17 14:19:54;;;;;;;;;;;;;;;29.54;14.17;101050.63;5415598;32;34781;-69
2022/07/17 14:22:56;;;;;;;;;;;;;;;29.64;13.94;101050.47;5407509;32;35189;-77
2022/07/17 14:25:58;;;;;;;;;;;;;;;29.47;14.18;101054.13;5426613;32;34592;-70
2022/07/17 14:29:00;;;;;;;;;;;;;;;29.80;13.60;101052.31;5421918;32;35177;-77
2022/07/17 14:32:02;;;;;;;;;;;;;;;28.66;14.83;101058.25;5411081;32;34884;-69
2022/07/17 14:35:04;;;;;;;;;;;;;;;29.07;14.70;101042.19;5408410;32;35166;-76
2022/07/17 14:38:06;;;;;;;;;;;;;;;29.13;14.41;101047.81;5415665;32;44775;-77
2022/07/17 14:41:09;;;;;;;;;;;;;;;29.33;14.24;101044.81;5425249;32;34967;-78
2022/07/17 14:44:11;;;;;;;;;;;;;;;29.65;14.19;101050.28;5400518;32;34638;-74
2022/07/17 14:47:15;;;;;;;;;;;;;;;29.80;13.47;101038.78;5408192;32;34938;-69
2022/07/17 14:50:17;;;;;;;;;;;;;;;29.02;14.28;101039.12;5433274;32;34566;-69
2022/07/17 14:53:20;;;;;;;;;;;;;;;28.82;14.77;101046.63;5426235;32;35174;-74
2022/07/17 14:56:25;;;;;;;;;;;;;;;29.23;14.17;101044.09;5411864;32;34578;-70
2022/07/17 14:59:27;;;;;;;;;;;;;;;29.67;13.95;101039.28;5420600;32;34729;-69
2022/07/17 15:02:29;;;;;;;;;;;;;;;28.94;14.13;101028.28;5417169;32;35004;-69
2022/07/17 15:05:31;;;;;;;;;;;;;;;29.60;13.96;101038.28;5416299;32;34319;-76
2022/07/17 15:08:33;;;;;;;;;;;;;;;29.39;14.28;101033.31;5403141;32;34917;-70
2022/07/17 15:11:36;;;;;;;;;;;;;;;30.18;13.45;101037.25;5392424;32;44566;-78
2022/07/17 15:14:38;;;;;;;;;;;;;;;29.95;13.59;101031.69;5406200;32;34657;-69
2022/07/17 15:17:40;;;;;;;;;;;;;;;29.10;14.23;101040.00;5409790;32;34437;-77
2022/07/17 15:20:43;;;;;;;;;;;;;;;28.22;15.13;101038.50;5434084;32;34468;-70
2022/07/17 15:23:45;;;;;;;;;;;;;;;28.64;14.59;101043.16;5399772;32;34508;-78
2022/07/17 15:26:48;;;;;;;;;;;;;;;28.64;14.69;101033.19;5441184;32;35594;-77
2022/07/17 15:29:49;;;;;;;;;;;;;;;29.55;14.05;101027.09;5423200;32;34050;-70
2022/07/17 15:32:51;;;;;;;;;;;;;;;29.37;13.83;101035.34;5424653;32;36190;-70
2022/07/17 15:35:54;;;;;;;;;;;;;;;28.80;14.79;101024.31;5421675;32;35276;-76
2022/07/17 15:38:57;;;;;;;;;;;;;;;28.32;15.69;101020.34;5415155;32;34555;-74